Time;durP1;ratioP1;P1;durP2;ratioP2;P2;SDS_P1;SDS_P2;PMS_P1;PMS_P2;Temp;Humidity;BMP_temperature;BMP_pressure;BME280_temperature;BME280_humidity;BME280_pressure;Samples;Min_cycle;Max_cycle;Signal;HPM_P1;HPM_P2
2022/03/31 00:00:18;;;;;;;;;;;5.30;99.00;;;;;;5112147;27;20337;-77
2022/03/31 00:02:44;;;;;;;;;;;5.30;99.90;;;;;;5110776;27;20407;-78
2022/03/31 00:05:09;;;;;;;;;;;5.20;99.90;;;;;;5092514;28;19920;-77
2022/03/31 00:07:35;;;;;;;;;;;5.20;99.90;;;;;;5092553;28;19941;-77
2022/03/31 00:10:00;;;;;;;;;;;5.20;99.90;;;;;;5091889;28;19955;-78
2022/03/31 00:12:26;;;;;;;;;;;5.10;99.90;;;;;;5110060;28;20381;-77
2022/03/31 00:14:52;;;;;;;;;;;5.10;99.90;;;;;;5110520;28;19920;-77
2022/03/31 00:17:18;;;;;;;;;;;5.10;99.90;;;;;;5092138;28;19973;-77
2022/03/31 00:19:44;;;;;;;;;;;5.00;99.90;;;;;;5092479;28;19927;-77
2022/03/31 00:34:21;;;;;;;;;;;4.90;99.90;;;;;;5092082;28;19924;-78
2022/03/31 00:36:47;;;;;;;;;;;4.80;99.90;;;;;;5092007;28;19927;-78
2022/03/31 00:41:58;;;;;;;;;;;4.80;99.90;;;;;;5091236;28;19920;-77
2022/03/31 00:44:24;;;;;;;;;;;4.80;99.90;;;;;;5091398;28;20389;-78
2022/03/31 00:46:51;;;;;;;;;;;4.80;99.90;;;;;;5092014;28;20032;-77
2022/03/31 00:49:17;;;;;;;;;;;4.70;99.90;;;;;;5108277;28;19927;-77
2022/03/31 00:51:43;;;;;;;;;;;4.70;99.90;;;;;;5091361;28;19919;-77
2022/03/31 00:54:08;;;;;;;;;;;4.70;99.90;;;;;;5091916;28;19927;-77
2022/03/31 00:56:35;;;;;;;;;;;4.70;99.90;;;;;;5091610;28;19920;-77
2022/03/31 00:59:04;;;;;;;;;;;4.60;99.90;;;;;;5091537;28;19923;-77
2022/03/31 01:01:31;;;;;;;;;;;4.60;99.90;;;;;;5091744;28;20010;-77
2022/03/31 01:03:56;;;;;;;;;;;4.60;99.90;;;;;;5103404;28;20006;-78
2022/03/31 01:06:22;;;;;;;;;;;4.60;99.90;;;;;;5111556;28;20360;-78
2022/03/31 01:08:47;;;;;;;;;;;4.50;99.90;;;;;;5111826;28;19920;-78
2022/03/31 01:11:13;;;;;;;;;;;4.50;99.90;;;;;;5111970;28;20009;-77
2022/03/31 01:13:39;;;;;;;;;;;4.50;99.90;;;;;;5111782;28;19976;-77
2022/03/31 01:16:04;;;;;;;;;;;4.50;99.90;;;;;;5112244;28;19978;-77
2022/03/31 01:18:30;;;;;;;;;;;4.40;99.90;;;;;;5111743;28;20433;-77
2022/03/31 01:20:55;;;;;;;;;;;4.40;99.90;;;;;;5111738;28;19924;-77
2022/03/31 01:23:21;;;;;;;;;;;4.30;99.90;;;;;;5111577;28;19968;-77
2022/03/31 01:25:47;;;;;;;;;;;4.30;99.90;;;;;;5111714;28;19923;-77
2022/03/31 01:28:13;;;;;;;;;;;4.30;99.90;;;;;;5094829;28;19954;-77
2022/03/31 01:30:38;;;;;;;;;;;4.20;99.90;;;;;;5111187;28;20331;-77
2022/03/31 01:33:04;;;;;;;;;;;4.20;99.90;;;;;;5094926;28;19924;-77
2022/03/31 01:35:29;;;;;;;;;;;4.20;99.90;;;;;;5111854;28;19930;-77
2022/03/31 01:37:55;;;;;;;;;;;4.20;99.90;;;;;;5095054;28;19926;-77
2022/03/31 01:40:21;;;;;;;;;;;4.20;99.90;;;;;;5111248;28;20626;-77
2022/03/31 01:42:46;;;;;;;;;;;4.20;99.90;;;;;;5111671;28;19923;-77
2022/03/31 01:45:14;;;;;;;;;;;4.20;99.90;;;;;;5110955;28;20437;-77
2022/03/31 01:47:40;;;;;;;;;;;4.30;99.90;;;;;;5101609;28;19927;-77
2022/03/31 01:50:09;;;;;;;;;;;4.30;99.90;;;;;;5112776;27;19930;-77
2022/03/31 01:52:35;;;;;;;;;;;4.30;99.90;;;;;;5106221;28;19945;-77
2022/03/31 01:55:00;;;;;;;;;;;4.20;99.90;;;;;;5093856;28;19927;-77
2022/03/31 01:57:26;;;;;;;;;;;4.30;99.90;;;;;;5093718;28;19927;-77
2022/03/31 01:59:52;;;;;;;;;;;4.20;99.90;;;;;;5094169;28;20022;-78
2022/03/31 02:02:17;;;;;;;;;;;4.20;99.90;;;;;;5094189;28;19919;-78
2022/03/31 02:04:43;;;;;;;;;;;4.10;99.90;;;;;;5113598;27;19920;-78
2022/03/31 02:07:09;;;;;;;;;;;4.10;99.90;;;;;;5114367;27;19924;-78
2022/03/31 02:09:34;;;;;;;;;;;4.00;99.90;;;;;;5114169;27;19919;-78
2022/03/31 02:12:00;;;;;;;;;;;4.00;99.90;;;;;;5113767;27;19919;-77
2022/03/31 02:14:25;;;;;;;;;;;3.90;99.90;;;;;;5113866;27;19924;-77
2022/03/31 02:16:51;;;;;;;;;;;3.90;99.90;;;;;;5114421;27;19968;-77
2022/03/31 02:19:17;;;;;;;;;;;3.90;99.90;;;;;;5113757;27;19920;-77
2022/03/31 02:21:43;;;;;;;;;;;3.90;99.90;;;;;;5113596;27;20160;-77
2022/03/31 02:24:09;;;;;;;;;;;3.90;99.90;;;;;;5114007;27;20010;-78
2022/03/31 02:26:35;;;;;;;;;;;3.90;99.90;;;;;;5113007;27;20022;-77
2022/03/31 02:29:03;;;;;;;;;;;3.90;99.90;;;;;;5113998;27;19985;-77
2022/03/31 02:31:28;;;;;;;;;;;3.90;99.90;;;;;;5113454;27;19941;-77
2022/03/31 02:33:54;;;;;;;;;;;3.90;99.90;;;;;;5114124;27;19920;-77
2022/03/31 02:36:19;;;;;;;;;;;3.90;99.90;;;;;;5113479;27;19926;-77
2022/03/31 02:38:45;;;;;;;;;;;3.80;99.90;;;;;;5112981;27;19930;-77
2022/03/31 02:41:11;;;;;;;;;;;3.80;99.90;;;;;;5113751;27;20389;-77
2022/03/31 02:43:38;;;;;;;;;;;3.80;99.90;;;;;;5113471;27;20460;-77
2022/03/31 02:46:03;;;;;;;;;;;3.80;99.90;;;;;;5113271;27;20010;-77
2022/03/31 02:48:29;;;;;;;;;;;3.80;99.90;;;;;;5112988;27;19924;-77
2022/03/31 02:50:54;;;;;;;;;;;3.70;99.90;;;;;;5112657;27;20011;-77
2022/03/31 02:56:04;;;;;;;;;;;3.70;99.90;;;;;;5113255;27;19928;-77
2022/03/31 02:58:30;;;;;;;;;;;3.70;99.90;;;;;;5113394;27;20345;-77
2022/03/31 03:00:56;;;;;;;;;;;3.70;99.90;;;;;;5113589;27;20396;-77
2022/03/31 03:03:22;;;;;;;;;;;3.70;99.90;;;;;;5113002;27;19919;-77
2022/03/31 03:05:48;;;;;;;;;;;3.70;99.90;;;;;;5112795;27;19968;-77
2022/03/31 03:08:14;;;;;;;;;;;3.70;99.90;;;;;;5113240;27;20474;-78
2022/03/31 03:10:40;;;;;;;;;;;3.70;99.90;;;;;;5112772;27;19945;-77
2022/03/31 03:13:06;;;;;;;;;;;3.70;99.90;;;;;;5112724;27;19923;-77
2022/03/31 03:15:32;;;;;;;;;;;3.70;99.90;;;;;;5112667;27;19924;-77
2022/03/31 03:17:57;;;;;;;;;;;3.70;99.90;;;;;;5112666;27;19923;-77
2022/03/31 03:20:24;;;;;;;;;;;3.70;99.90;;;;;;5130930;27;20270;-77
2022/03/31 03:22:51;;;;;;;;;;;3.70;99.90;;;;;;5131074;27;20026;-77
2022/03/31 03:25:18;;;;;;;;;;;3.80;99.90;;;;;;5112634;27;19919;-77
2022/03/31 03:27:43;;;;;;;;;;;3.70;99.90;;;;;;5112670;27;19919;-77
2022/03/31 03:30:09;;;;;;;;;;;3.70;99.90;;;;;;5112533;27;19965;-77
2022/03/31 03:32:38;;;;;;;;;;;3.70;99.90;;;;;;5111961;27;20388;-77
2022/03/31 03:35:07;;;;;;;;;;;3.70;99.90;;;;;;5112608;27;20456;-78
2022/03/31 03:37:33;;;;;;;;;;;3.70;99.90;;;;;;5112325;27;20393;-77
2022/03/31 03:40:02;;;;;;;;;;;3.60;99.90;;;;;;5112346;27;19966;-77
2022/03/31 03:42:28;;;;;;;;;;;3.60;99.90;;;;;;5111786;27;19920;-77
2022/03/31 03:44:54;;;;;;;;;;;3.60;99.90;;;;;;5111823;27;19926;-77
2022/03/31 03:47:20;;;;;;;;;;;3.60;99.90;;;;;;5111829;27;19945;-78
2022/03/31 03:49:45;;;;;;;;;;;3.60;99.90;;;;;;5129098;27;19920;-78
2022/03/31 03:52:11;;;;;;;;;;;3.60;99.90;;;;;;5112325;27;19976;-77
2022/03/31 03:54:36;;;;;;;;;;;3.50;99.90;;;;;;5111487;28;19919;-77
2022/03/31 03:57:02;;;;;;;;;;;3.50;99.90;;;;;;5100552;28;19920;-77
2022/03/31 03:59:28;;;;;;;;;;;3.50;99.90;;;;;;5091800;28;20385;-77
2022/03/31 04:01:54;;;;;;;;;;;3.50;99.90;;;;;;5074688;28;19919;-78
2022/03/31 04:04:19;;;;;;;;;;;3.40;99.90;;;;;;5091678;28;19920;-78
2022/03/31 04:06:45;;;;;;;;;;;3.40;99.90;;;;;;5090961;28;19920;-78
2022/03/31 04:09:10;;;;;;;;;;;3.40;99.90;;;;;;5091645;28;19927;-77
2022/03/31 04:11:36;;;;;;;;;;;3.40;99.90;;;;;;5090808;28;19927;-78
2022/03/31 04:14:01;;;;;;;;;;;3.40;99.90;;;;;;5090621;28;19920;-78
2022/03/31 04:16:27;;;;;;;;;;;3.40;99.90;;;;;;5091675;28;19923;-78
2022/03/31 04:18:52;;;;;;;;;;;3.40;99.90;;;;;;5074270;28;20396;-77
2022/03/31 04:21:18;;;;;;;;;;;3.40;99.90;;;;;;5091117;28;19942;-77
2022/03/31 04:23:43;;;;;;;;;;;3.40;99.90;;;;;;5091104;28;20015;-78
2022/03/31 04:26:09;;;;;;;;;;;3.40;99.90;;;;;;5090914;28;19919;-77
2022/03/31 04:28:34;;;;;;;;;;;3.40;99.90;;;;;;5091385;28;19923;-77
2022/03/31 04:31:00;;;;;;;;;;;3.40;99.90;;;;;;5090925;28;20002;-78
2022/03/31 04:33:26;;;;;;;;;;;3.30;99.90;;;;;;5091148;28;20468;-78
2022/03/31 04:35:51;;;;;;;;;;;3.40;99.90;;;;;;5091349;28;19972;-77
2022/03/31 04:38:17;;;;;;;;;;;3.30;99.90;;;;;;5108778;28;19924;-78
2022/03/31 04:40:43;;;;;;;;;;;3.40;99.90;;;;;;5090607;28;19920;-78
2022/03/31 04:43:08;;;;;;;;;;;3.40;99.90;;;;;;5090343;28;20000;-78
2022/03/31 04:45:34;;;;;;;;;;;3.30;99.90;;;;;;5090424;28;20442;-78
2022/03/31 04:47:59;;;;;;;;;;;3.30;99.90;;;;;;5090236;28;19920;-78
2022/03/31 04:50:25;;;;;;;;;;;3.30;99.90;;;;;;5089978;28;20384;-78
2022/03/31 04:52:50;;;;;;;;;;;3.30;99.90;;;;;;5090160;28;19927;-78
2022/03/31 04:55:16;;;;;;;;;;;3.30;99.90;;;;;;5090406;28;20667;-78
2022/03/31 04:57:42;;;;;;;;;;;3.20;99.90;;;;;;5106645;28;19923;-78
2022/03/31 05:00:07;;;;;;;;;;;3.20;99.90;;;;;;5128921;28;20334;-78
2022/03/31 05:02:33;;;;;;;;;;;3.20;99.90;;;;;;5110785;28;20377;-78
2022/03/31 05:04:58;;;;;;;;;;;3.20;99.90;;;;;;5110551;28;19919;-78
2022/03/31 05:07:24;;;;;;;;;;;3.20;99.90;;;;;;5110155;28;19919;-78
2022/03/31 05:09:49;;;;;;;;;;;3.20;99.90;;;;;;5110460;28;19925;-79
2022/03/31 05:12:15;;;;;;;;;;;3.20;99.90;;;;;;5128966;28;19979;-78
2022/03/31 05:14:40;;;;;;;;;;;3.20;99.90;;;;;;5128775;28;20270;-78
2022/03/31 05:17:06;;;;;;;;;;;3.30;99.90;;;;;;5110099;28;19920;-79
2022/03/31 05:19:32;;;;;;;;;;;3.30;99.90;;;;;;5110653;28;19970;-78
2022/03/31 05:21:58;;;;;;;;;;;3.30;99.90;;;;;;5110914;28;20222;-78
2022/03/31 05:24:24;;;;;;;;;;;3.20;99.90;;;;;;5111642;27;19927;-78
2022/03/31 05:26:52;;;;;;;;;;;3.30;99.90;;;;;;5115010;27;20289;-78
2022/03/31 05:29:21;;;;;;;;;;;3.20;99.90;;;;;;5114221;27;19919;-78
2022/03/31 05:31:47;;;;;;;;;;;3.20;99.90;;;;;;5114330;27;20115;-78
2022/03/31 05:34:13;;;;;;;;;;;3.20;99.90;;;;;;5132990;27;19923;-78
2022/03/31 05:36:38;;;;;;;;;;;3.20;99.90;;;;;;5114572;27;19987;-78
2022/03/31 05:39:04;;;;;;;;;;;3.20;99.90;;;;;;5114709;27;19949;-78
2022/03/31 05:41:30;;;;;;;;;;;3.20;99.90;;;;;;5110269;28;19919;-78
2022/03/31 05:43:56;;;;;;;;;;;3.20;99.90;;;;;;5111091;28;20373;-78
2022/03/31 05:46:22;;;;;;;;;;;3.20;99.90;;;;;;5111399;28;20392;-77
2022/03/31 05:48:48;;;;;;;;;;;3.20;99.90;;;;;;5110737;28;20358;-77
2022/03/31 05:51:13;;;;;;;;;;;3.10;99.90;;;;;;5110668;28;19945;-79
2022/03/31 05:53:39;;;;;;;;;;;3.10;99.90;;;;;;5107981;28;19920;-78
2022/03/31 05:56:04;;;;;;;;;;;3.10;99.90;;;;;;5103038;28;19932;-78
2022/03/31 05:58:30;;;;;;;;;;;3.10;99.90;;;;;;5106191;28;19976;-78
2022/03/31 06:00:55;;;;;;;;;;;3.20;99.90;;;;;;5097581;28;20006;-77
2022/03/31 06:03:23;;;;;;;;;;;3.10;99.90;;;;;;5098439;28;19955;-77
2022/03/31 06:05:51;;;;;;;;;;;3.10;99.90;;;;;;5100428;28;19924;-77
2022/03/31 06:08:17;;;;;;;;;;;3.10;99.90;;;;;;5110501;28;20018;-78
2022/03/31 06:10:43;;;;;;;;;;;3.10;99.90;;;;;;5109747;28;20060;-77
2022/03/31 06:13:09;;;;;;;;;;;3.10;99.90;;;;;;5091038;28;19924;-77
2022/03/31 06:15:35;;;;;;;;;;;3.10;99.90;;;;;;5091839;28;20354;-77
2022/03/31 06:18:00;;;;;;;;;;;3.10;99.90;;;;;;5090983;28;20026;-77
2022/03/31 06:20:27;;;;;;;;;;;3.10;99.90;;;;;;5091000;28;19927;-77
2022/03/31 06:22:53;;;;;;;;;;;3.10;99.90;;;;;;5090885;28;19923;-77
2022/03/31 06:25:20;;;;;;;;;;;3.10;99.90;;;;;;5089747;28;19931;-77
2022/03/31 06:27:46;;;;;;;;;;;3.10;99.90;;;;;;5089661;28;19926;-77
2022/03/31 06:30:12;;;;;;;;;;;3.10;99.90;;;;;;5090831;28;19920;-77
2022/03/31 06:32:38;;;;;;;;;;;3.10;99.90;;;;;;5090674;28;19927;-78
2022/03/31 06:35:04;;;;;;;;;;;3.10;99.90;;;;;;5090413;28;19930;-77
2022/03/31 06:37:29;;;;;;;;;;;3.10;99.90;;;;;;5106382;28;20000;-78
2022/03/31 06:39:55;;;;;;;;;;;3.10;99.90;;;;;;5089915;28;19981;-77
2022/03/31 06:42:21;;;;;;;;;;;3.10;99.90;;;;;;5103511;28;19926;-77
2022/03/31 06:44:46;;;;;;;;;;;3.10;99.90;;;;;;5092911;28;20444;-77
2022/03/31 06:47:12;;;;;;;;;;;3.10;99.90;;;;;;5093298;28;19920;-77
2022/03/31 06:49:37;;;;;;;;;;;3.10;99.90;;;;;;5093113;28;19996;-79
2022/03/31 06:52:03;;;;;;;;;;;3.20;99.90;;;;;;5112102;28;19920;-78
2022/03/31 06:54:28;;;;;;;;;;;3.20;99.90;;;;;;5093510;28;19970;-78
2022/03/31 06:56:55;;;;;;;;;;;3.20;99.90;;;;;;5104001;27;19923;-78
2022/03/31 06:59:21;;;;;;;;;;;3.20;99.90;;;;;;5113563;27;19923;-78
2022/03/31 07:01:48;;;;;;;;;;;3.20;99.90;;;;;;5114081;27;19920;-78
2022/03/31 07:04:14;;;;;;;;;;;3.20;99.90;;;;;;5113951;27;19927;-78
2022/03/31 07:06:39;;;;;;;;;;;3.20;99.90;;;;;;5132164;27;19919;-78
2022/03/31 07:09:06;;;;;;;;;;;3.20;99.90;;;;;;5132519;27;20373;-78
2022/03/31 07:11:32;;;;;;;;;;;3.20;99.90;;;;;;5131780;27;20272;-78
2022/03/31 07:14:01;;;;;;;;;;;3.20;99.90;;;;;;5113406;27;21024;-78
2022/03/31 07:16:27;;;;;;;;;;;3.20;99.90;;;;;;5132061;27;19919;-78
2022/03/31 07:18:52;;;;;;;;;;;3.20;99.90;;;;;;5132282;27;20313;-78
2022/03/31 07:21:18;;;;;;;;;;;3.10;99.90;;;;;;5131606;27;19930;-78
2022/03/31 07:23:48;;;;;;;;;;;3.10;99.90;;;;;;5113747;27;19924;-78
2022/03/31 07:26:14;;;;;;;;;;;3.10;99.90;;;;;;5113532;27;21220;-78
2022/03/31 07:28:40;;;;;;;;;;;3.10;99.90;;;;;;5131847;27;19919;-78
2022/03/31 07:31:06;;;;;;;;;;;3.10;99.90;;;;;;5113160;27;19994;-78
2022/03/31 07:33:31;;;;;;;;;;;3.10;99.90;;;;;;5131655;27;19923;-78
2022/03/31 07:35:57;;;;;;;;;;;3.10;99.90;;;;;;5131426;27;20016;-79
2022/03/31 07:38:22;;;;;;;;;;;3.00;99.90;;;;;;5113151;27;19993;-79
2022/03/31 07:40:49;;;;;;;;;;;3.00;99.90;;;;;;5131002;27;19919;-79
2022/03/31 07:43:15;;;;;;;;;;;3.00;99.90;;;;;;5131603;27;19965;-79
2022/03/31 07:45:41;;;;;;;;;;;3.00;99.90;;;;;;5131290;27;19954;-79
2022/03/31 07:48:15;;;;;;;;;;;2.90;99.90;;;;;;5130254;27;19923;-79
2022/03/31 07:50:41;;;;;;;;;;;3.00;99.90;;;;;;5112522;27;19919;-79
2022/03/31 07:53:06;;;;;;;;;;;2.90;99.90;;;;;;5113369;27;20351;-79
2022/03/31 07:55:32;;;;;;;;;;;2.90;99.90;;;;;;5131071;27;19955;-79
2022/03/31 07:57:58;;;;;;;;;;;2.90;99.90;;;;;;5111730;28;19923;-79
2022/03/31 08:00:23;;;;;;;;;;;2.90;99.90;;;;;;5110669;28;19920;-77
2022/03/31 08:02:50;;;;;;;;;;;2.90;99.90;;;;;;5092415;28;19920;-78
2022/03/31 08:05:17;;;;;;;;;;;2.90;99.90;;;;;;5110572;28;20396;-77
2022/03/31 08:07:43;;;;;;;;;;;3.00;99.90;;;;;;5110546;28;19981;-79
2022/03/31 08:10:09;;;;;;;;;;;2.90;99.90;;;;;;5092300;28;19919;-78
2022/03/31 08:12:35;;;;;;;;;;;3.00;99.90;;;;;;5091718;28;19988;-78
2022/03/31 08:15:01;;;;;;;;;;;3.00;99.90;;;;;;5110288;28;20305;-78
2022/03/31 08:17:27;;;;;;;;;;;3.00;99.90;;;;;;5110473;28;19927;-79
2022/03/31 08:19:53;;;;;;;;;;;3.00;99.90;;;;;;5092101;28;20078;-77
2022/03/31 08:22:18;;;;;;;;;;;2.90;99.90;;;;;;5091650;28;19989;-78
2022/03/31 08:24:44;;;;;;;;;;;2.90;99.90;;;;;;5092072;28;19920;-79
2022/03/31 08:27:09;;;;;;;;;;;2.90;99.90;;;;;;5109875;28;19926;-79
2022/03/31 08:29:35;;;;;;;;;;;2.80;99.90;;;;;;5109959;28;20540;-78
2022/03/31 08:32:01;;;;;;;;;;;2.80;99.90;;;;;;5091790;28;20278;-78
2022/03/31 08:34:27;;;;;;;;;;;2.80;99.90;;;;;;5110045;28;19923;-78
2022/03/31 08:36:52;;;;;;;;;;;2.80;99.90;;;;;;5109835;28;19924;-77
2022/03/31 08:39:18;;;;;;;;;;;2.80;99.90;;;;;;5109526;28;20381;-78
2022/03/31 08:41:44;;;;;;;;;;;2.70;99.90;;;;;;5109358;28;20494;-79
2022/03/31 08:44:14;;;;;;;;;;;2.70;99.90;;;;;;5091677;28;19920;-78
2022/03/31 08:46:41;;;;;;;;;;;2.70;99.90;;;;;;5110023;28;19920;-78
2022/03/31 08:49:07;;;;;;;;;;;2.70;99.90;;;;;;5091792;28;20006;-78
2022/03/31 08:51:33;;;;;;;;;;;2.70;99.90;;;;;;5110152;28;19920;-78
2022/03/31 08:53:58;;;;;;;;;;;2.70;99.90;;;;;;5109791;28;19950;-78
2022/03/31 08:56:24;;;;;;;;;;;2.70;99.90;;;;;;5115875;28;19926;-78
2022/03/31 08:58:49;;;;;;;;;;;2.70;99.90;;;;;;5132118;27;19969;-78
2022/03/31 09:01:16;;;;;;;;;;;2.70;99.90;;;;;;5116383;27;19926;-78
2022/03/31 09:03:42;;;;;;;;;;;2.80;99.90;;;;;;5134627;27;19987;-78
2022/03/31 09:06:08;;;;;;;;;;;2.70;99.90;;;;;;5116056;27;20549;-78
2022/03/31 09:08:34;;;;;;;;;;;2.70;99.90;;;;;;5115831;27;19920;-78
2022/03/31 09:11:03;;;;;;;;;;;2.70;99.90;;;;;;5116021;27;19919;-78
2022/03/31 09:13:36;;;;;;;;;;;2.70;99.90;;;;;;5115810;27;19924;-78
2022/03/31 09:16:03;;;;;;;;;;;2.70;99.90;;;;;;5134158;27;19920;-79
2022/03/31 09:18:29;;;;;;;;;;;2.60;99.90;;;;;;5115691;27;19923;-79
2022/03/31 09:20:56;;;;;;;;;;;2.60;99.90;;;;;;5134181;27;19992;-79
2022/03/31 09:23:22;;;;;;;;;;;2.60;99.90;;;;;;5115885;27;19920;-79
2022/03/31 09:25:50;;;;;;;;;;;2.60;99.90;;;;;;5115548;27;19963;-79
2022/03/31 09:28:18;;;;;;;;;;;2.50;99.90;;;;;;5133842;27;19927;-79
2022/03/31 09:30:45;;;;;;;;;;;2.50;99.90;;;;;;5133919;27;19977;-79
2022/03/31 09:33:11;;;;;;;;;;;2.50;99.90;;;;;;5115136;27;20446;-79
2022/03/31 09:35:36;;;;;;;;;;;2.40;99.90;;;;;;5115510;27;19919;-78
2022/03/31 09:38:10;;;;;;;;;;;2.40;99.90;;;;;;5133373;27;19969;-79
2022/03/31 09:40:36;;;;;;;;;;;2.40;99.90;;;;;;5115052;27;20002;-79
2022/03/31 09:43:01;;;;;;;;;;;2.30;99.90;;;;;;5115112;27;20091;-78
2022/03/31 09:45:38;;;;;;;;;;;2.30;99.90;;;;;;5115362;27;19973;-78
2022/03/31 09:48:04;;;;;;;;;;;2.30;99.90;;;;;;5115390;27;20005;-79
2022/03/31 09:50:34;;;;;;;;;;;2.30;99.90;;;;;;5115270;27;20293;-78
2022/03/31 09:52:59;;;;;;;;;;;2.30;99.90;;;;;;5115357;27;19923;-79
2022/03/31 09:55:25;;;;;;;;;;;2.30;99.90;;;;;;5115325;27;19987;-78
2022/03/31 09:57:52;;;;;;;;;;;2.20;99.90;;;;;;5114437;27;19919;-79
2022/03/31 10:00:17;;;;;;;;;;;2.20;99.90;;;;;;5115084;27;19920;-78
2022/03/31 10:02:44;;;;;;;;;;;2.20;99.90;;;;;;5133815;27;20281;-78
2022/03/31 10:05:11;;;;;;;;;;;2.10;99.90;;;;;;5133636;27;19926;-78
2022/03/31 10:07:36;;;;;;;;;;;2.10;99.90;;;;;;5097953;27;19919;-78
2022/03/31 10:10:02;;;;;;;;;;;2.10;99.90;;;;;;5131871;27;20006;-79
2022/03/31 10:12:33;;;;;;;;;;;2.00;99.90;;;;;;5115148;27;19923;-78
2022/03/31 10:15:00;;;;;;;;;;;2.00;99.90;;;;;;5133419;27;20429;-77
2022/03/31 10:17:27;;;;;;;;;;;2.00;99.90;;;;;;5097941;27;19988;-78
2022/03/31 10:19:53;;;;;;;;;;;2.00;99.90;;;;;;5132706;27;19959;-78
2022/03/31 10:25:05;;;;;;;;;;;2.00;99.90;;;;;;5114961;27;19919;-77
2022/03/31 10:27:32;;;;;;;;;;;1.90;99.90;;;;;;5133025;27;19984;-78
2022/03/31 10:30:09;;;;;;;;;;;1.90;99.90;;;;;;5114018;27;19946;-77
2022/03/31 10:32:34;;;;;;;;;;;1.90;99.90;;;;;;5132881;27;19946;-79
2022/03/31 10:35:00;;;;;;;;;;;1.80;99.90;;;;;;5114704;27;20326;-78
2022/03/31 10:37:36;;;;;;;;;;;1.80;99.90;;;;;;5114507;27;19919;-78
2022/03/31 10:40:03;;;;;;;;;;;1.80;99.90;;;;;;5132545;27;19927;-78
2022/03/31 10:42:29;;;;;;;;;;;1.80;99.90;;;;;;5113937;27;19931;-78
2022/03/31 10:45:02;;;;;;;;;;;1.70;99.90;;;;;;5114105;27;19920;-77
2022/03/31 10:47:32;;;;;;;;;;;1.70;99.90;;;;;;5114027;27;19927;-78
2022/03/31 10:49:57;;;;;;;;;;;1.70;99.90;;;;;;5132859;27;20017;-77
2022/03/31 10:52:23;;;;;;;;;;;1.70;99.90;;;;;;5114634;27;20406;-76
2022/03/31 10:54:52;;;;;;;;;;;1.60;99.90;;;;;;5097299;27;19923;-77
2022/03/31 10:57:18;;;;;;;;;;;1.60;99.90;;;;;;5132325;27;20370;-78
2022/03/31 10:59:44;;;;;;;;;;;1.60;99.90;;;;;;5132139;27;20001;-78
2022/03/31 11:02:14;;;;;;;;;;;1.60;99.90;;;;;;5132531;27;20267;-78
2022/03/31 11:04:43;;;;;;;;;;;1.50;99.90;;;;;;5132262;27;20005;-78
2022/03/31 11:07:13;;;;;;;;;;;1.50;99.90;;;;;;5132281;27;20912;-78
2022/03/31 11:09:38;;;;;;;;;;;1.50;99.90;;;;;;5132103;27;19920;-77
2022/03/31 11:12:04;;;;;;;;;;;1.50;99.90;;;;;;5113891;27;19926;-77
2022/03/31 11:14:30;;;;;;;;;;;1.50;99.90;;;;;;5131543;27;20018;-78
2022/03/31 11:16:55;;;;;;;;;;;1.50;99.90;;;;;;5131661;27;20005;-78
2022/03/31 11:19:21;;;;;;;;;;;1.50;99.90;;;;;;5131874;27;19919;-77
2022/03/31 11:21:47;;;;;;;;;;;1.50;99.90;;;;;;5112069;28;19919;-78
2022/03/31 11:24:12;;;;;;;;;;;1.50;99.90;;;;;;5131423;27;19919;-77
2022/03/31 11:26:44;;;;;;;;;;;1.40;99.90;;;;;;5113385;27;19927;-78
2022/03/31 11:29:11;;;;;;;;;;;1.50;99.90;;;;;;5131702;27;19923;-78
2022/03/31 11:31:37;;;;;;;;;;;1.50;99.90;;;;;;5112651;27;19920;-78
2022/03/31 11:34:02;;;;;;;;;;;1.50;99.90;;;;;;5096507;27;19919;-77
2022/03/31 11:36:37;;;;;;;;;;;1.50;99.90;;;;;;5131605;27;19920;-78
2022/03/31 11:39:04;;;;;;;;;;;1.50;99.90;;;;;;5113279;27;19926;-78
2022/03/31 11:41:40;;;;;;;;;;;1.50;99.90;;;;;;5112601;27;19930;-78
2022/03/31 11:44:07;;;;;;;;;;;1.50;99.90;;;;;;5113374;27;20010;-78
2022/03/31 11:46:43;;;;;;;;;;;1.50;99.90;;;;;;5112832;27;19967;-78
2022/03/31 11:49:25;;;;;;;;;;;1.50;99.90;;;;;;5131351;27;20379;-78
2022/03/31 11:51:51;;;;;;;;;;;1.50;99.90;;;;;;5112129;27;20312;-78
2022/03/31 11:54:17;;;;;;;;;;;1.50;99.90;;;;;;5112843;27;20014;-78
2022/03/31 11:56:44;;;;;;;;;;;1.50;99.90;;;;;;5112889;27;20010;-77
2022/03/31 11:59:09;;;;;;;;;;;1.50;99.90;;;;;;5113050;27;19927;-78
2022/03/31 12:01:47;;;;;;;;;;;1.60;99.90;;;;;;5112982;27;19919;-78
2022/03/31 12:04:16;;;;;;;;;;;1.60;99.90;;;;;;5112215;27;19964;-78
2022/03/31 12:06:42;;;;;;;;;;;1.60;99.90;;;;;;5131057;27;19923;-79
2022/03/31 12:09:07;;;;;;;;;;;1.60;99.90;;;;;;5112949;27;19923;-79
2022/03/31 12:11:33;;;;;;;;;;;1.60;99.90;;;;;;5112207;27;19927;-78
2022/03/31 12:14:00;;;;;;;;;;;1.70;99.90;;;;;;5112725;27;20317;-78
2022/03/31 12:16:26;;;;;;;;;;;1.70;99.90;;;;;;5112873;27;19975;-78
2022/03/31 12:18:56;;;;;;;;;;;1.70;99.90;;;;;;5095211;27;20373;-78
2022/03/31 12:21:23;;;;;;;;;;;1.70;99.90;;;;;;5112521;27;19925;-79
2022/03/31 12:23:49;;;;;;;;;;;1.70;99.90;;;;;;5112218;27;19923;-79
2022/03/31 12:26:22;;;;;;;;;;;1.70;99.90;;;;;;5130714;27;19926;-77
2022/03/31 12:28:48;;;;;;;;;;;1.70;99.90;;;;;;5111978;27;19923;-78
2022/03/31 12:31:26;;;;;;;;;;;1.70;99.90;;;;;;5129741;27;20010;-78
2022/03/31 12:33:53;;;;;;;;;;;1.70;99.90;;;;;;5111728;28;20002;-77
2022/03/31 12:36:28;;;;;;;;;;;1.70;99.90;;;;;;5130164;27;19919;-77
2022/03/31 12:38:55;;;;;;;;;;;1.80;99.90;;;;;;5111919;27;19973;-78
2022/03/31 12:41:22;;;;;;;;;;;1.80;99.90;;;;;;5129266;27;19919;-78
2022/03/31 12:43:59;;;;;;;;;;;1.80;99.90;;;;;;5130413;27;19964;-78
2022/03/31 12:46:28;;;;;;;;;;;1.80;99.90;;;;;;5094616;28;19923;-78
2022/03/31 12:49:01;;;;;;;;;;;1.80;99.90;;;;;;5111727;28;19923;-78
2022/03/31 12:51:27;;;;;;;;;;;1.80;99.90;;;;;;5130364;28;19920;-78
2022/03/31 12:53:52;;;;;;;;;;;1.80;99.90;;;;;;5130177;28;19919;-78
2022/03/31 12:56:22;;;;;;;;;;;1.80;99.90;;;;;;5129778;28;19964;-78
2022/03/31 12:58:47;;;;;;;;;;;1.80;99.90;;;;;;5129958;28;19920;-77
2022/03/31 13:01:13;;;;;;;;;;;1.70;99.90;;;;;;5129933;28;20119;-77
2022/03/31 13:03:38;;;;;;;;;;;1.80;99.90;;;;;;5130374;28;19923;-77
2022/03/31 13:06:04;;;;;;;;;;;1.80;99.90;;;;;;5130320;28;19920;-78
2022/03/31 13:08:29;;;;;;;;;;;1.80;99.90;;;;;;5094433;28;20452;-77
2022/03/31 13:10:55;;;;;;;;;;;1.80;99.90;;;;;;5111790;28;19919;-77
2022/03/31 13:13:21;;;;;;;;;;;1.70;99.90;;;;;;5130276;28;19991;-77
2022/03/31 13:15:46;;;;;;;;;;;1.80;99.90;;;;;;5130116;28;19940;-77
2022/03/31 13:18:12;;;;;;;;;;;1.70;99.90;;;;;;5111541;28;19919;-77
2022/03/31 13:20:38;;;;;;;;;;;1.70;99.90;;;;;;5130034;28;20274;-77
2022/03/31 13:23:03;;;;;;;;;;;1.70;99.90;;;;;;5129754;28;19923;-77
2022/03/31 13:25:29;;;;;;;;;;;1.70;99.90;;;;;;5111748;28;19923;-77
2022/03/31 13:27:54;;;;;;;;;;;1.70;99.90;;;;;;5111312;28;19926;-77
2022/03/31 13:30:22;;;;;;;;;;;1.70;99.90;;;;;;5110831;28;19919;-77
2022/03/31 13:32:47;;;;;;;;;;;1.70;99.90;;;;;;5129136;28;20011;-77
2022/03/31 13:35:13;;;;;;;;;;;1.70;99.90;;;;;;5128945;28;19989;-77
2022/03/31 13:37:39;;;;;;;;;;;1.70;99.90;;;;;;5128867;28;19972;-77
2022/03/31 13:40:07;;;;;;;;;;;1.70;99.90;;;;;;5129493;28;19919;-77
2022/03/31 13:42:35;;;;;;;;;;;1.70;99.90;;;;;;5110696;28;20444;-78
2022/03/31 13:45:01;;;;;;;;;;;1.70;99.90;;;;;;5128996;27;20644;-78
2022/03/31 13:47:27;;;;;;;;;;;1.70;99.90;;;;;;5115008;27;20310;-77
2022/03/31 13:49:52;;;;;;;;;;;1.60;99.90;;;;;;5132538;27;20002;-78
2022/03/31 13:52:18;;;;;;;;;;;1.60;99.90;;;;;;5132915;27;19927;-78
2022/03/31 13:54:43;;;;;;;;;;;1.60;99.90;;;;;;5114041;27;19962;-76
2022/03/31 14:01:07;;;;;;;;;;;1.60;99.90;;;;;;5114083;27;19926;-77
2022/03/31 14:02:40;;;;;;;;;;;1.60;99.90;;;;;;5114242;27;20361;-77
2022/03/31 14:05:07;;;;;;;;;;;1.60;99.90;;;;;;5132448;27;19923;-77
2022/03/31 14:07:32;;;;;;;;;;;1.60;99.90;;;;;;5097107;27;19963;-77
2022/03/31 14:09:58;;;;;;;;;;;1.60;99.90;;;;;;5133187;27;20023;-78
2022/03/31 14:12:23;;;;;;;;;;;1.60;99.90;;;;;;5114867;27;19930;-78
2022/03/31 14:14:49;;;;;;;;;;;1.60;99.90;;;;;;5114570;27;19923;-77
2022/03/31 14:17:14;;;;;;;;;;;1.60;99.90;;;;;;5114402;27;19942;-78
2022/03/31 14:19:41;;;;;;;;;;;1.60;99.90;;;;;;5114790;27;20381;-78
2022/03/31 14:22:07;;;;;;;;;;;1.60;99.90;;;;;;5114948;27;19964;-77
2022/03/31 14:24:34;;;;;;;;;;;1.70;99.90;;;;;;5114577;27;19928;-78
2022/03/31 14:27:00;;;;;;;;;;;1.70;99.90;;;;;;5114771;27;19923;-78
2022/03/31 14:29:26;;;;;;;;;;;1.70;99.90;;;;;;5114757;27;19923;-78
2022/03/31 14:31:52;;;;;;;;;;;1.70;99.90;;;;;;5132859;27;20396;-78
2022/03/31 14:34:18;;;;;;;;;;;1.70;99.90;;;;;;5132793;27;20013;-78
2022/03/31 14:36:45;;;;;;;;;;;1.70;99.90;;;;;;5132906;27;20010;-78
2022/03/31 14:39:12;;;;;;;;;;;1.70;99.90;;;;;;5114501;27;19927;-78
2022/03/31 14:41:38;;;;;;;;;;;1.70;99.90;;;;;;5132519;27;20221;-78
2022/03/31 14:44:05;;;;;;;;;;;1.80;99.90;;;;;;5132738;27;20009;-78
2022/03/31 14:46:32;;;;;;;;;;;1.80;99.90;;;;;;5132065;27;19927;-78
2022/03/31 14:48:58;;;;;;;;;;;1.80;99.90;;;;;;5114741;27;19930;-78